createdAt,value
2023-01-08T00:01:50.431Z,78.80
2023-01-08T00:04:22.422Z,78.77
2023-01-08T00:06:54.359Z,78.75
2023-01-08T00:09:26.389Z,78.86
2023-01-08T00:11:58.298Z,78.82
2023-01-08T00:14:30.968Z,78.79
2023-01-08T00:17:04.828Z,78.81
2023-01-08T00:19:36.828Z,78.84
2023-01-08T00:22:08.862Z,78.68
2023-01-08T00:24:40.813Z,78.80
2023-01-08T00:27:12.764Z,78.89
2023-01-08T00:29:44.835Z,78.55
2023-01-08T00:32:16.826Z,78.81
2023-01-08T00:34:48.812Z,79.06
2023-01-08T00:37:21.024Z,79.01
2023-01-08T00:39:52.966Z,78.94
2023-01-08T00:42:24.933Z,78.78
2023-01-08T00:44:56.936Z,78.94
2023-01-08T00:47:28.913Z,78.97
2023-01-08T00:50:00.906Z,79.20
2023-01-08T00:52:32.842Z,79.00
2023-01-08T00:55:05.291Z,79.28
2023-01-08T00:57:39.287Z,78.88
2023-01-08T01:00:14.433Z,78.93
2023-01-08T01:02:46.533Z,78.99
2023-01-08T01:05:18.556Z,78.76
2023-01-08T01:07:50.655Z,78.89
2023-01-08T01:10:23.325Z,78.62
2023-01-08T01:12:55.260Z,78.68
2023-01-08T01:15:27.374Z,78.54
2023-01-08T01:17:59.315Z,78.31
2023-01-08T01:20:31.210Z,78.43
2023-01-08T01:23:04.522Z,78.93
2023-01-08T01:25:39.369Z,78.27
2023-01-08T01:28:11.313Z,78.11
2023-01-08T01:30:43.502Z,78.08
2023-01-08T01:33:15.493Z,78.00
2023-01-08T01:35:47.518Z,77.85
2023-01-08T01:38:19.479Z,77.58
2023-01-08T01:40:51.402Z,77.51
2023-01-08T01:43:42.016Z,77.49
2023-01-08T01:46:40.023Z,77.49
2023-01-08T01:49:18.248Z,77.68
2023-01-08T01:51:56.211Z,77.67
2023-01-08T01:54:30.115Z,77.55
2023-01-08T01:57:02.263Z,77.74
2023-01-08T01:59:34.189Z,77.85
2023-01-08T02:02:06.476Z,77.95
2023-01-08T02:04:38.525Z,78.07
2023-01-08T02:07:50.895Z,78.50
2023-01-08T02:10:30.109Z,78.27
2023-01-08T02:13:09.312Z,78.13
2023-01-08T02:15:53.249Z,78.39
2023-01-08T02:18:37.998Z,78.14
2023-01-08T02:21:13.719Z,78.23
2023-01-08T02:24:11.413Z,78.17
2023-01-08T02:26:46.191Z,78.24
2023-01-08T02:29:26.051Z,78.40
2023-01-08T02:31:58.307Z,78.36
2023-01-08T02:34:32.415Z,78.38
2023-01-08T02:37:04.860Z,78.52
2023-01-08T02:40:07.402Z,78.51
2023-01-08T02:42:57.323Z,78.40
2023-01-08T02:45:52.648Z,78.39
2023-01-08T02:48:24.704Z,78.09
2023-01-08T02:51:05.809Z,78.22
2023-01-08T02:53:43.327Z,78.07
2023-01-08T02:56:19.678Z,78.02
2023-01-08T02:58:54.293Z,77.66
2023-01-08T03:01:28.234Z,77.80
2023-01-08T03:04:06.972Z,78.18
2023-01-08T03:06:39.108Z,78.31
2023-01-08T03:09:12.151Z,77.96
2023-01-08T03:11:55.054Z,77.94
2023-01-08T03:14:35.535Z,77.56
2023-01-08T03:17:10.791Z,77.46
2023-01-08T03:19:49.238Z,76.89
2023-01-08T03:22:23.190Z,76.97
2023-01-08T03:24:57.119Z,76.77
2023-01-08T03:27:32.916Z,76.76
2023-01-08T03:30:08.056Z,76.87
2023-01-08T03:32:42.493Z,76.47
2023-01-08T03:35:18.412Z,76.49
2023-01-08T03:38:00.913Z,76.21
2023-01-08T03:40:39.904Z,76.04
2023-01-08T03:43:12.077Z,76.13
2023-01-08T03:45:52.006Z,75.97
2023-01-08T03:48:25.486Z,76.14
2023-01-08T03:50:57.526Z,76.27
2023-01-08T03:53:29.521Z,76.38
2023-01-08T03:56:01.438Z,76.40
2023-01-08T03:58:33.397Z,76.54
2023-01-08T04:01:05.592Z,76.62
2023-01-08T04:03:38.267Z,76.45
2023-01-08T04:06:10.745Z,76.45
2023-01-08T04:08:42.657Z,75.93
2023-01-08T04:11:14.671Z,75.79
2023-01-08T04:13:46.638Z,75.47
2023-01-08T04:16:18.729Z,75.47
2023-01-08T04:18:50.822Z,75.25
2023-01-08T04:21:22.766Z,75.07
2023-01-08T04:23:55.756Z,75.07
2023-01-08T04:26:27.705Z,74.90
2023-01-08T04:29:02.401Z,75.00
2023-01-08T04:31:34.324Z,75.08
2023-01-08T04:34:06.345Z,74.80
2023-01-08T04:36:38.618Z,74.71
2023-01-08T04:39:11.660Z,74.71
2023-01-08T04:41:43.502Z,74.85
2023-01-08T04:44:15.432Z,74.89
2023-01-08T04:46:47.395Z,74.94
2023-01-08T04:49:19.421Z,74.94
2023-01-08T04:51:51.372Z,74.93
2023-01-08T04:54:23.383Z,74.70
2023-01-08T04:56:55.366Z,74.61
2023-01-08T04:59:27.337Z,74.60
2023-01-08T05:01:59.473Z,74.83
2023-01-08T05:04:31.752Z,74.64
2023-01-08T05:07:04.651Z,74.53
2023-01-08T05:09:36.613Z,74.85
2023-01-08T05:12:08.620Z,74.40
2023-01-08T05:14:40.552Z,74.50
2023-01-08T05:17:12.515Z,74.50
2023-01-08T05:19:44.476Z,74.63
2023-01-08T05:22:16.460Z,74.58
2023-01-08T05:24:48.371Z,74.46
2023-01-08T05:27:20.749Z,74.55
2023-01-08T05:29:52.840Z,74.42
2023-01-08T05:32:24.785Z,74.50
2023-01-08T05:34:57.092Z,74.39
2023-01-08T05:37:29.005Z,74.30
2023-01-08T05:40:01.016Z,74.39
2023-01-08T05:42:35.594Z,74.16
2023-01-08T05:45:08.417Z,74.28
2023-01-08T05:47:40.394Z,73.83
2023-01-08T05:50:12.445Z,74.10
2023-01-08T05:52:44.727Z,73.93
2023-01-08T05:55:16.754Z,73.94
2023-01-08T05:57:48.741Z,74.14
2023-01-08T06:00:20.960Z,73.86
2023-01-08T06:02:52.923Z,73.87
2023-01-08T06:05:25.089Z,73.77
2023-01-08T06:07:57.836Z,73.95
2023-01-08T06:10:29.676Z,74.26
2023-01-08T06:13:02.666Z,74.45
2023-01-08T06:15:34.676Z,74.04
2023-01-08T06:18:06.839Z,73.89
2023-01-08T06:20:38.878Z,73.59
2023-01-08T06:23:10.915Z,73.68
2023-01-08T06:25:42.796Z,73.88
2023-01-08T06:28:14.628Z,73.63
2023-01-08T06:30:46.528Z,73.90
2023-01-08T06:33:21.180Z,74.13
2023-01-08T06:35:53.489Z,74.13
2023-01-08T06:38:25.353Z,73.91
2023-01-08T06:40:57.219Z,74.01
2023-01-08T06:43:29.208Z,74.07
2023-01-08T06:46:01.644Z,74.22
2023-01-08T06:48:33.611Z,74.20
2023-01-08T06:51:06.022Z,74.57
2023-01-08T06:53:37.993Z,74.24
2023-01-08T06:56:11.401Z,74.16
2023-01-08T06:58:43.386Z,74.38
2023-01-08T07:01:16.983Z,74.63
2023-01-08T07:03:49.322Z,74.31
2023-01-08T07:06:22.538Z,74.52
2023-01-08T07:08:54.492Z,74.92
2023-01-08T07:11:26.489Z,74.68
2023-01-08T07:13:58.434Z,74.28
2023-01-08T07:16:30.439Z,73.96
2023-01-08T07:19:02.399Z,74.17
2023-01-08T07:21:34.560Z,73.92
2023-01-08T07:24:07.934Z,73.69
2023-01-08T07:26:40.166Z,73.54
2023-01-08T07:29:12.012Z,73.23
2023-01-08T07:31:44.027Z,73.22
2023-01-08T07:34:16.133Z,73.33
2023-01-08T07:36:48.068Z,73.49
2023-01-08T07:39:20.032Z,73.37
2023-01-08T07:41:51.953Z,72.86
2023-01-08T07:44:24.007Z,72.92
2023-01-08T07:46:56.003Z,73.07
2023-01-08T07:49:27.989Z,73.21
2023-01-08T07:51:59.946Z,73.23
2023-01-08T07:54:31.879Z,72.83
2023-01-08T07:57:03.918Z,72.68
2023-01-08T07:59:35.812Z,73.07
2023-01-08T08:02:07.968Z,73.38
2023-01-08T08:04:40.007Z,72.47
2023-01-08T08:07:11.972Z,72.44
2023-01-08T08:09:43.935Z,72.65
2023-01-08T08:12:15.880Z,72.83
2023-01-08T08:14:47.841Z,72.71
2023-01-08T08:17:19.878Z,72.56
2023-01-08T08:19:51.848Z,72.83
2023-01-08T08:22:23.798Z,72.71
2023-01-08T08:24:55.759Z,72.43
2023-01-08T08:27:27.739Z,72.56
2023-01-08T08:30:00.105Z,72.74
2023-01-08T08:32:32.059Z,72.51
2023-01-08T08:35:05.803Z,72.34
2023-01-08T08:37:37.829Z,72.30
2023-01-08T08:40:10.262Z,72.48
2023-01-08T08:42:42.175Z,72.39
2023-01-08T08:45:14.389Z,72.23
2023-01-08T08:47:46.387Z,72.32
2023-01-08T08:50:18.901Z,72.05
2023-01-08T08:52:50.840Z,72.11
2023-01-08T08:55:22.860Z,71.88
2023-01-08T08:57:54.798Z,72.36
2023-01-08T09:00:26.723Z,71.97
2023-01-08T09:02:58.905Z,72.07
2023-01-08T09:05:30.931Z,71.94
2023-01-08T09:08:02.844Z,71.61
2023-01-08T09:10:36.589Z,72.11
2023-01-08T09:13:09.367Z,71.21
2023-01-08T09:15:41.318Z,71.48
2023-01-08T09:18:15.838Z,71.43
2023-01-08T09:20:48.182Z,71.00
2023-01-08T09:23:20.338Z,71.19
2023-01-08T09:26:00.263Z,71.31
2023-01-08T09:28:32.840Z,70.85
2023-01-08T09:31:05.396Z,70.57
2023-01-08T09:33:37.402Z,70.70
2023-01-08T09:36:11.974Z,70.57
2023-01-08T09:38:45.295Z,70.48
2023-01-08T09:41:27.115Z,70.25
2023-01-08T09:44:01.438Z,70.12
2023-01-08T09:46:35.016Z,70.32
2023-01-08T09:49:11.417Z,70.24
2023-01-08T09:51:43.609Z,70.01
2023-01-08T09:54:18.008Z,70.34
2023-01-08T09:56:50.117Z,70.38
2023-01-08T09:59:22.957Z,70.00
2023-01-08T10:01:55.255Z,70.56
2023-01-08T10:04:30.318Z,69.91
2023-01-08T10:07:16.170Z,70.11
2023-01-08T10:09:50.576Z,69.54
2023-01-08T10:12:30.882Z,69.62
2023-01-08T10:15:06.091Z,69.88
2023-01-08T10:17:41.028Z,69.56
2023-01-08T10:20:20.979Z,69.93
2023-01-08T10:22:57.236Z,69.39
2023-01-08T10:25:29.309Z,69.53
2023-01-08T10:28:03.546Z,69.96
2023-01-08T10:30:38.504Z,69.89
2023-01-08T10:33:25.756Z,69.41
2023-01-08T10:36:03.836Z,69.52
2023-01-08T10:38:48.624Z,69.52
2023-01-08T10:41:21.854Z,69.69
2023-01-08T10:44:02.164Z,68.98
2023-01-08T10:46:41.916Z,68.83
2023-01-08T10:49:29.308Z,68.75
2023-01-08T10:52:01.708Z,69.88
2023-01-08T10:54:39.792Z,68.83
2023-01-08T10:57:28.726Z,69.08
2023-01-08T11:00:00.756Z,68.91
2023-01-08T11:02:38.141Z,69.12
2023-01-08T11:05:11.773Z,68.84
2023-01-08T11:07:48.148Z,69.07
2023-01-08T11:10:23.542Z,69.41
2023-01-08T11:12:57.990Z,69.08
2023-01-08T11:15:34.849Z,69.11
2023-01-08T11:18:27.871Z,69.23
2023-01-08T11:21:11.372Z,69.13
2023-01-08T11:23:43.307Z,68.75
2023-01-08T11:26:20.910Z,69.17
2023-01-08T11:29:11.009Z,68.91
2023-01-08T11:32:08.756Z,69.04
2023-01-08T11:35:05.444Z,68.70
2023-01-08T11:37:40.714Z,69.02
2023-01-08T11:40:18.214Z,69.08
2023-01-08T11:43:14.496Z,68.75
2023-01-08T11:45:49.377Z,68.23
2023-01-08T11:48:36.448Z,68.96
2023-01-08T11:51:08.376Z,69.10
2023-01-08T11:54:04.981Z,69.45
2023-01-08T11:56:48.824Z,69.30
2023-01-08T11:59:44.488Z,69.10
2023-01-08T12:02:44.751Z,69.39
2023-01-08T12:05:38.496Z,68.92
2023-01-08T12:08:28.309Z,69.46
2023-01-08T12:11:17.841Z,69.26
2023-01-08T12:14:07.212Z,69.23
2023-01-08T12:17:09.945Z,69.02
2023-01-08T12:20:08.064Z,69.04
2023-01-08T12:23:00.538Z,69.80
2023-01-08T12:25:43.460Z,69.63
2023-01-08T12:29:09.575Z,69.33
2023-01-08T12:31:46.356Z,70.08
2023-01-08T12:34:46.674Z,69.64
2023-01-08T12:37:31.097Z,69.72
2023-01-08T12:40:22.720Z,69.95
2023-01-08T12:43:00.957Z,69.71
2023-01-08T12:45:40.982Z,69.80
2023-01-08T12:48:20.842Z,69.88
2023-01-08T12:51:21.365Z,69.95
2023-01-08T12:54:03.235Z,69.66
2023-01-08T12:57:25.036Z,69.57
2023-01-08T13:00:05.344Z,69.64
2023-01-08T13:03:03.474Z,69.94
2023-01-08T13:05:37.959Z,69.82
2023-01-08T13:08:34.526Z,69.99
2023-01-08T13:11:07.883Z,69.79
2023-01-08T13:13:45.428Z,70.08
2023-01-08T13:16:22.423Z,69.92
2023-01-08T13:19:02.914Z,70.29
2023-01-08T13:21:39.772Z,70.19
2023-01-08T13:24:37.421Z,70.20
2023-01-08T13:27:15.199Z,70.38
2023-01-08T13:29:51.485Z,70.30
2023-01-08T13:32:43.262Z,70.25
2023-01-08T13:35:15.260Z,70.50
2023-01-08T13:37:51.876Z,70.70
2023-01-08T13:40:46.425Z,70.80
2023-01-08T13:43:31.794Z,70.40
2023-01-08T13:46:03.839Z,71.06
2023-01-08T13:48:39.762Z,71.19
2023-01-08T13:51:34.329Z,71.07
2023-01-08T13:54:33.243Z,70.97
2023-01-08T13:57:12.912Z,71.06
2023-01-08T13:59:57.759Z,71.43
2023-01-08T14:02:32.891Z,71.56
2023-01-08T14:05:19.495Z,71.52
2023-01-08T14:07:52.013Z,71.44
2023-01-08T14:10:24.610Z,71.72
2023-01-08T14:13:08.861Z,71.45
2023-01-08T14:15:40.895Z,71.27
2023-01-08T14:18:14.553Z,72.23
2023-01-08T14:20:50.813Z,72.03
2023-01-08T14:23:30.651Z,72.05
2023-01-08T14:26:09.014Z,71.88
2023-01-08T14:28:52.039Z,71.56
2023-01-08T14:31:26.956Z,71.71
2023-01-08T14:34:00.939Z,71.64
2023-01-08T14:36:33.121Z,71.75
2023-01-08T14:39:11.756Z,71.58
2023-01-08T14:42:02.063Z,71.88
2023-01-08T14:44:40.423Z,72.06
2023-01-08T14:47:18.558Z,72.13
2023-01-08T14:49:54.337Z,72.19
2023-01-08T14:52:26.759Z,72.00
2023-01-08T14:55:03.451Z,72.42
2023-01-08T14:57:35.378Z,72.00
2023-01-08T15:00:14.931Z,72.31
2023-01-08T15:02:48.706Z,72.14
2023-01-08T15:05:28.870Z,72.18
2023-01-08T15:08:22.442Z,72.73
2023-01-08T15:11:00.628Z,72.34
2023-01-08T15:13:35.247Z,72.09
2023-01-08T15:16:35.460Z,72.24
2023-01-08T15:19:11.933Z,72.37
2023-01-08T15:21:52.009Z,72.20
2023-01-08T15:24:34.648Z,71.77
2023-01-08T15:27:10.558Z,72.27
2023-01-08T15:29:51.667Z,72.32
2023-01-08T15:32:24.334Z,72.58
2023-01-08T15:34:56.336Z,72.51
2023-01-08T15:37:28.571Z,72.46
2023-01-08T15:40:01.040Z,72.54
2023-01-08T15:42:52.503Z,72.29
2023-01-08T15:45:32.158Z,71.91
2023-01-08T15:48:05.097Z,72.10
2023-01-08T15:50:40.711Z,72.05
2023-01-08T15:53:17.781Z,72.07
2023-01-08T15:55:50.142Z,72.13
2023-01-08T15:58:22.000Z,72.17
2023-01-08T16:00:53.986Z,72.17
2023-01-08T16:03:26.217Z,72.54
2023-01-08T16:05:58.180Z,72.59
2023-01-08T16:08:30.133Z,72.54
2023-01-08T16:11:02.120Z,72.18
2023-01-08T16:13:34.137Z,72.58
2023-01-08T16:16:14.904Z,72.91
2023-01-08T16:18:46.828Z,72.81
2023-01-08T16:21:18.807Z,72.53
2023-01-08T16:23:50.898Z,72.33
2023-01-08T16:26:22.820Z,72.95
2023-01-08T16:28:55.518Z,72.46
2023-01-08T16:31:27.563Z,72.57
2023-01-08T16:34:03.703Z,72.68
2023-01-08T16:36:36.347Z,72.78
2023-01-08T16:39:08.321Z,72.68
2023-01-08T16:41:40.459Z,72.73
2023-01-08T16:44:26.901Z,72.78
2023-01-08T16:47:01.698Z,73.07
2023-01-08T16:49:33.877Z,72.79
2023-01-08T16:52:06.012Z,73.04
2023-01-08T16:54:38.192Z,72.65
2023-01-08T16:57:10.159Z,73.14
2023-01-08T16:59:42.140Z,73.06
2023-01-08T17:02:14.137Z,72.69
2023-01-08T17:04:46.051Z,72.88
2023-01-08T17:07:18.070Z,73.94
2023-01-08T17:09:50.031Z,73.27
2023-01-08T17:12:24.793Z,72.92
2023-01-08T17:14:56.819Z,73.18
2023-01-08T17:17:28.776Z,73.11
2023-01-08T17:20:00.804Z,72.76
2023-01-08T17:22:32.901Z,72.53
2023-01-08T17:25:05.268Z,72.75
2023-01-08T17:27:37.422Z,72.69
2023-01-08T17:30:11.367Z,72.37
2023-01-08T17:32:43.298Z,72.80
2023-01-08T17:35:15.307Z,72.75
2023-01-08T17:37:47.368Z,72.76
2023-01-08T17:40:19.395Z,72.71
2023-01-08T17:42:51.365Z,72.50
2023-01-08T17:45:23.532Z,72.63
2023-01-08T17:47:55.419Z,72.52
2023-01-08T17:50:27.303Z,72.34
2023-01-08T17:53:00.037Z,72.66
2023-01-08T17:55:31.955Z,72.56
2023-01-08T17:58:03.841Z,72.97
2023-01-08T18:00:35.716Z,72.61
2023-01-08T18:03:07.575Z,72.47
2023-01-08T18:05:39.411Z,72.46
2023-01-08T18:08:11.288Z,72.69
2023-01-08T18:10:43.125Z,72.48
2023-01-08T18:13:15.254Z,72.44
2023-01-08T18:15:47.108Z,72.74
2023-01-08T18:18:19.019Z,72.52
2023-01-08T18:20:54.692Z,72.73
2023-01-08T18:23:26.795Z,73.05
2023-01-08T18:26:05.168Z,72.82
2023-01-08T18:28:47.228Z,72.92
2023-01-08T18:31:19.442Z,72.89
2023-01-08T18:33:52.693Z,73.00
2023-01-08T18:36:24.689Z,73.56
2023-01-08T18:38:57.835Z,73.38
2023-01-08T18:41:48.197Z,73.37
2023-01-08T18:44:20.221Z,73.21
2023-01-08T18:46:52.226Z,73.36
2023-01-08T18:49:24.862Z,73.45
2023-01-08T18:51:56.854Z,73.86
2023-01-08T18:54:29.224Z,73.54
2023-01-08T18:57:01.271Z,73.82
2023-01-08T18:59:33.300Z,73.45
2023-01-08T19:02:05.677Z,73.56
2023-01-08T19:04:37.643Z,73.69
2023-01-08T19:07:09.602Z,73.49
2023-01-08T19:09:41.684Z,73.14
2023-01-08T19:12:13.671Z,73.43
2023-01-08T19:14:47.084Z,73.44
2023-01-08T19:17:19.205Z,73.13
2023-01-08T19:19:51.236Z,73.13
2023-01-08T19:22:26.997Z,73.13
2023-01-08T19:24:59.576Z,73.28
2023-01-08T19:27:31.524Z,73.21
2023-01-08T19:30:04.472Z,73.31
2023-01-08T19:32:36.590Z,73.04
2023-01-08T19:35:08.957Z,72.91
2023-01-08T19:37:40.796Z,72.84
2023-01-08T19:40:13.286Z,73.09
2023-01-08T19:43:03.886Z,73.19
2023-01-08T19:45:37.617Z,73.10
2023-01-08T19:48:09.601Z,73.19
2023-01-08T19:50:41.898Z,73.27
2023-01-08T19:53:14.660Z,73.21
2023-01-08T19:55:46.716Z,73.18
2023-01-08T19:58:19.792Z,73.16
2023-01-08T20:00:56.465Z,73.21
2023-01-08T20:03:29.037Z,73.19
2023-01-08T20:06:00.883Z,73.33
2023-01-08T20:08:32.816Z,73.03
2023-01-08T20:11:07.296Z,73.25
2023-01-08T20:13:39.521Z,73.31
2023-01-08T20:16:14.009Z,73.16
2023-01-08T20:18:46.117Z,73.38
2023-01-08T20:21:24.343Z,73.61
2023-01-08T20:24:02.720Z,73.33
2023-01-08T20:26:36.456Z,73.56
2023-01-08T20:29:08.723Z,73.31
2023-01-08T20:31:41.363Z,73.59
2023-01-08T20:34:16.322Z,73.23
2023-01-08T20:36:48.325Z,73.83
2023-01-08T20:39:20.313Z,73.82
2023-01-08T20:41:55.900Z,73.93
2023-01-08T20:44:35.945Z,73.61
2023-01-08T20:47:07.848Z,73.57
2023-01-08T20:49:39.915Z,74.00
2023-01-08T20:52:11.801Z,73.95
2023-01-08T20:54:43.734Z,73.72
2023-01-08T20:57:15.643Z,73.75
2023-01-08T20:59:47.752Z,74.34
2023-01-08T21:02:20.927Z,74.07
2023-01-08T21:04:55.259Z,74.05
2023-01-08T21:07:30.074Z,74.06
2023-01-08T21:10:02.290Z,74.08
2023-01-08T21:12:35.939Z,74.08
2023-01-08T21:15:09.067Z,74.04
2023-01-08T21:17:40.936Z,73.89
2023-01-08T21:20:13.134Z,74.56
2023-01-08T21:22:45.505Z,74.29
2023-01-08T21:25:19.220Z,74.27
2023-01-08T21:27:51.096Z,74.36
2023-01-08T21:30:23.051Z,74.38
2023-01-08T21:32:54.905Z,74.63
2023-01-08T21:35:27.126Z,74.38
2023-01-08T21:37:59.072Z,74.73
2023-01-08T21:40:31.077Z,74.46
2023-01-08T21:43:21.399Z,74.74
2023-01-08T21:46:05.492Z,74.79
2023-01-08T21:48:37.410Z,75.01
2023-01-08T21:51:29.400Z,75.08
2023-01-08T21:54:01.295Z,74.97
2023-01-08T21:56:33.679Z,75.64
2023-01-08T21:59:05.618Z,75.30
2023-01-08T22:01:37.655Z,75.72
2023-01-08T22:04:09.688Z,75.36
2023-01-08T22:06:43.141Z,75.21
2023-01-08T22:09:15.115Z,75.25
2023-01-08T22:11:47.330Z,75.39
2023-01-08T22:14:19.320Z,75.59
2023-01-08T22:16:51.542Z,75.49
2023-01-08T22:19:23.560Z,75.42
2023-01-08T22:21:55.497Z,75.68
2023-01-08T22:24:27.512Z,75.35
2023-01-08T22:26:59.556Z,75.60
2023-01-08T22:29:31.558Z,75.59
2023-01-08T22:32:04.172Z,75.22
2023-01-08T22:34:36.184Z,75.27
2023-01-08T22:37:08.323Z,75.46
2023-01-08T22:39:40.286Z,76.00
2023-01-08T22:42:12.224Z,75.71
2023-01-08T22:44:44.127Z,76.00
2023-01-08T22:47:16.033Z,75.45
2023-01-08T22:49:49.047Z,75.52
2023-01-08T22:52:21.090Z,75.78
2023-01-08T22:54:55.084Z,75.72
2023-01-08T22:57:27.059Z,75.53
2023-01-08T22:59:58.912Z,75.47
2023-01-08T23:02:30.774Z,75.52
2023-01-08T23:05:02.800Z,75.62
2023-01-08T23:07:34.741Z,75.81
2023-01-08T23:10:07.459Z,75.90
2023-01-08T23:12:39.296Z,75.60
2023-01-08T23:15:11.390Z,75.74
2023-01-08T23:17:52.135Z,75.33
2023-01-08T23:20:25.311Z,75.73
2023-01-08T23:22:57.279Z,75.41
2023-01-08T23:25:30.468Z,75.34
2023-01-08T23:28:02.442Z,75.55
2023-01-08T23:30:34.473Z,75.68
2023-01-08T23:33:06.435Z,75.84
2023-01-08T23:35:38.375Z,76.40
2023-01-08T23:38:10.326Z,75.87
2023-01-08T23:40:43.522Z,75.86
2023-01-08T23:43:15.493Z,75.64
2023-01-08T23:45:47.456Z,75.89
2023-01-08T23:48:19.459Z,75.77
2023-01-08T23:50:51.436Z,75.90
2023-01-08T23:53:23.739Z,76.19
2023-01-08T23:55:55.695Z,75.82
2023-01-08T23:58:27.848Z,75.62
